AirNav   TITAN Aviation Fuels
 
 1628 users online  

WA52 Deer Flat Airport
Deer Park, Washington, USA

GOING TO DEER PARK?


FAA INFORMATION EFFECTIVE 04 NOVEMBER 2021

Location

FAA Identifier: WA52
Lat/Long: 47-57-25.0000N 117-36-13.0000W
47-57.416667N 117-36.216667W
47.9569444,-117.6036111
(estimated)
Elevation: 2200 ft. / 671 m (estimated)
From city: 7 miles E of DEER PARK, WA
Time zone: UTC -7 (UTC -8 during Standard Time)
Zip code: 99006

Airport Operations

Airport use: Private use. Permission required prior to landing
Activation date: 11/2003
Control tower: no
ARTCC: SEATTLE CENTER
FSS: SEATTLE FLIGHT SERVICE STATION
Attendance: UNATNDD
Wind indicator: yes
Segmented circle: no

Airport Communications

WX ASOS at DEW (7 nm E): 135.175 (509-276-2303)
WX ASOS at SFF (20 nm SE): 120.55 (509-535-3290)

Nearby radio navigation aids

VOR radial/distance  VOR name  Freq  Var
GEGr341/23.5SPOKANE VORTAC115.5021E
COEr270/33.4COEUR D'ALENE VOR/DME108.8019E

 
NDB name  Hdg/Dist  Freq  Var  ID
DEER PARK249/7.236516EDPY -.. .--. -.--

Airport Services

Runway Information

Runway 10/28

Dimensions: 1800 x 75 ft. / 549 x 23 m
Surface: turf
RUNWAY 10  RUNWAY 28
Traffic pattern: leftleft
Obstructions: 168 ft. hill, 5000 ft. from runwaynone

Airport Ownership and Management from official FAA records

Ownership: Privately-owned
Owner: BRET & SARAH STORY
4865 MCDOUGAL RD
DEER PARK, WA 99006
Phone 509-227-5190
Manager: BRET & SARAH STORY
4865 MCDOUGAL RD
DEER PARK, WA 99006
Phone 509-227-5190

Airport Operational Statistics

Aircraft based on the field: 2
Single engine airplanes: 2
    

Additional Remarks

FOR CD CTC SPOKANE APCH AT 509-742-2522

Instrument Procedures

There are no published instrument procedures at WA52.

Some nearby airports with instrument procedures:

KDEW - Deer Park Airport (7 nm E)
KSFF - Felts Field Airport (20 nm SE)
KGEG - Spokane International Airport (20 nm S)
KSKA - Fairchild Air Force Base (21 nm S)
KCOE - Coeur d'Alene Airport - Pappy Boyington Field (33 nm E)
 
Loc | Ops | Rwys | IFR | FBO | Links
Com | Nav | Svcs | Stats | Notes
Area around WA52 (Deer Flat Airport)
 
Road maps at: MapQuest Bing Google
 
Aerial photo
No photo
 
Sectional chart

 
Airport distance calculator
Flying to Deer Flat Airport? Find the distance to fly.

From to WA52

Sunrise and sunset
Times for 30-Nov-2021
 Local
(UTC-8)
 Zulu
(UTC)
Morning civil twilight06:4414:44
Sunrise07:1915:19
Sunset15:5923:59
Evening civil twilight16:3500:35

Current date and time
Zulu (UTC)  30-Nov-2021 18:14:00
Local (UTC-8)  30-Nov-2021 10:14:00
 
METAR
KDEW 
7nm E 
301753Z AUTO 18003KT 10SM BKN020 08/04 A3011 RMK AO2 SLP202 T00830039 10083 20061 50014
TAF
KSFF 
20nm SE 
300520Z 3006/0106 19005KT P6SM BKN035 BKN250 FM301200 21005KT P6SM OVC120 FM301700 20010G20KT P6SM OVC050 FM302300 22010KT P6SM OVC050 FM010300 20008KT P6SM OVC035
KSKA 
21nm S 
300300Z 3003/0109 17009KT 9999 SCT010 BKN150 QNH3018INS BECMG 3008/3009 20009KT 9999 FEW008 BKN025 OVC100 QNH3007INS BECMG 3015/3016 20012G18KT 9999 SCT015 OVC030 620559 QNH3007INS BECMG 3021/3022 21015G25KT 9999 VCSH SCT010 OVC025 620807 QNH3006INS BECMG 0102/0103 21012G20KT 9999 NSW SCT030 OVC060 620806 QNH3009INS TX09/3021Z TN05/3011Z
KGEG 
21nm S 
301738Z 3018/0118 20015G21KT P6SM SCT030 OVC080 FM010000 20012G18KT P6SM VCSH FEW020 OVC050 FM010500 20017G26KT P6SM SCT025 BKN060
NOTAMs
Click for the latest NOTAMs
NOTAMs are issued by the DoD/FAA and will open in a separate window not controlled by AirNav.

 

 
 

Would you like to see your business listed on this page?

 If your business provides an interesting product or service to pilots, flight crews, aircraft, or users of the Deer Flat Airport, you should consider listing it here.  To start the listing process, click on the button below
 
Add a business
 

Other Pages about Deer Flat Airport

Update a link
 
Copyright © AirNav, LLC. All rights reserved. Privacy Policy  Contact